Time;durP1;ratioP1;P1;durP2;ratioP2;P2;SDS_P1;SDS_P2;PMS_P1;PMS_P2;Temp;Humidity;BMP_temperature;BMP_pressure;BME280_temperature;BME280_humidity;BME280_pressure;Samples;Min_cycle;Max_cycle;Signal;HPM_P1;HPM_P2
2022/11/30 00:00:55;;;;;;;14.25;9.57;;;;;;;-142.75;100.00;78444.72;5040162;28;20043;-66
2022/11/30 00:03:21;;;;;;;20.70;10.88;;;;;;;-142.75;100.00;78442.75;5039778;28;20079;-67
2022/11/30 00:05:46;;;;;;;16.90;9.70;;;;;;;-142.75;100.00;78460.47;5040305;28;20053;-67
2022/11/30 00:08:12;;;;;;;18.73;10.40;;;;;;;-142.75;100.00;78432.91;5039400;28;20029;-67
2022/11/30 00:10:38;;;;;;;16.40;10.07;;;;;;;-142.75;100.00;78438.81;5039905;28;20029;-66
2022/11/30 00:13:03;;;;;;;;;;;;;;;-142.75;100.00;78452.59;5039951;28;20967;-66
2022/11/30 00:15:28;;;;;;;15.77;8.95;;;;;;;-142.75;100.00;78456.53;5039932;28;19916;-69
2022/11/30 00:17:56;;;;;;;16.02;9.35;;;;;;;-142.75;100.00;78468.34;5063368;22;20042;-63
2022/11/30 00:20:22;;;;;;;19.73;9.63;;;;;;;-142.75;100.00;78460.47;5057652;28;20189;-60
2022/11/30 00:22:47;;;;;;;17.15;9.40;;;;;;;-142.75;100.00;78448.66;5059866;28;20032;-64
2022/11/30 00:25:13;;;;;;;21.60;9.98;;;;;;;-142.75;100.00;78432.91;5058440;28;20028;-60
2022/11/30 00:27:38;;;;;;;18.25;10.68;;;;;;;-142.75;100.00;78444.72;5056903;28;20028;-64
2022/11/30 00:30:04;;;;;;;20.73;10.93;;;;;;;-142.75;100.00;78456.53;5040153;28;20025;-60
2022/11/30 00:32:30;;;;;;;16.88;10.30;;;;;;;-142.75;100.00;78428.97;5039299;28;20037;-64
2022/11/30 00:34:55;;;;;;;21.75;10.82;;;;;;;-142.75;100.00;78401.38;5038185;28;20403;-62
2022/11/30 00:37:21;;;;;;;14.15;8.82;;;;;;;-142.75;100.00;78444.72;5038385;28;20147;-59
2022/11/30 00:39:46;;;;;;;15.98;9.27;;;;;;;-142.75;100.00;78448.66;5039522;28;20029;-65
2022/11/30 00:42:12;;;;;;;18.10;9.45;;;;;;;-142.75;100.00;78415.19;5038054;28;20025;-62
2022/11/30 00:44:37;;;;;;;23.73;9.68;;;;;;;-142.75;100.00;78413.22;5039252;28;20588;-64
2022/11/30 00:47:03;;;;;;;13.98;9.45;;;;;;;-142.75;100.00;78417.16;5038533;28;20124;-60
2022/11/30 00:49:28;;;;;;;13.65;8.10;;;;;;;-142.75;100.00;78409.28;5038907;28;20173;-62
2022/11/30 00:51:53;;;;;;;15.10;8.70;;;;;;;-142.75;100.00;78409.28;5039632;28;20683;-63
2022/11/30 00:54:18;;;;;;;14.10;9.52;;;;;;;-142.75;100.00;78421.09;5037468;28;20036;-63
2022/11/30 00:56:44;;;;;;;14.88;9.35;;;;;;;-142.75;100.00;78432.91;5037914;28;20016;-63
2022/11/30 00:59:09;;;;;;;14.15;8.40;;;;;;;-142.75;100.00;78438.81;5039493;28;20029;-63
2022/11/30 01:01:35;;;;;;;13.75;8.75;;;;;;;-142.75;100.00;78448.66;5038893;28;20127;-64
2022/11/30 01:04:01;;;;;;;21.50;10.88;;;;;;;-142.75;100.00;78428.97;5037835;28;20526;-62
2022/11/30 01:06:26;;;;;;;34.60;18.20;;;;;;;-142.75;100.00;78411.25;5038313;28;20090;-61
2022/11/30 01:08:52;;;;;;;23.55;11.60;;;;;;;-142.75;100.00;78395.47;5037587;28;20091;-65
2022/11/30 01:11:23;;;;;;;19.65;10.27;;;;;;;-142.75;100.00;78387.59;5038821;28;20090;-63
2022/11/30 01:13:49;;;;;;;14.15;8.45;;;;;;;-142.75;100.00;78415.19;5038837;28;20044;-64
2022/11/30 01:16:22;;;;;;;16.75;9.30;;;;;;;-142.75;100.00;78403.38;5038481;28;20058;-64
2022/11/30 01:18:48;;;;;;;13.70;8.93;;;;;;;-142.75;100.00;78389.56;5038098;28;20548;-62
2022/11/30 01:21:15;;;;;;;;;;;;;;;-142.75;100.00;78405.34;5038905;28;20695;-64
2022/11/30 01:23:40;;;;;;;17.00;8.82;;;;;;;-142.75;100.00;78403.38;5038395;28;19967;-59
2022/11/30 01:26:06;;;;;;;16.08;8.45;;;;;;;-142.75;100.00;78401.38;5038303;28;20136;-63
2022/11/30 01:28:32;;;;;;;19.85;8.35;;;;;;;-142.75;100.00;78434.88;5038150;28;20029;-63
2022/11/30 01:31:00;;;;;;;19.48;9.43;;;;;;;-142.75;100.00;78421.09;5037598;28;20025;-64
2022/11/30 01:33:25;;;;;;;18.80;10.00;;;;;;;-142.75;100.00;78427.00;5038237;28;20025;-61
2022/11/30 01:36:05;;;;;;;17.05;8.73;;;;;;;-142.75;100.00;78425.03;5037479;28;20063;-61
2022/11/30 01:38:32;;;;;;;16.33;8.65;;;;;;;-142.75;100.00;78417.16;5037242;28;20039;-62
2022/11/30 01:40:57;;;;;;;17.60;8.82;;;;;;;-142.75;100.00;78401.38;5038441;28;20068;-64
2022/11/30 01:43:40;;;;;;;15.27;8.90;;;;;;;-142.75;100.00;78401.38;5036363;28;20673;-63
2022/11/30 01:46:25;;;;;;;14.70;8.90;;;;;;;-142.75;100.00;78375.78;5036939;28;20032;-63
2022/11/30 01:49:01;;;;;;;16.92;8.82;;;;;;;-142.75;100.00;78363.97;5037349;28;20498;-65
2022/11/30 01:51:33;;;;;;;22.63;9.57;;;;;;;-142.75;100.00;78365.94;5036524;28;20127;-64
2022/11/30 01:53:59;;;;;;;15.98;8.98;;;;;;;-142.75;100.00;78425.03;5038104;28;20487;-63
2022/11/30 01:56:24;;;;;;;;;;;;;;;-142.75;100.00;78403.38;5036874;28;20029;-63
2022/11/30 01:58:50;;;;;;;14.27;7.60;;;;;;;-142.75;100.00;78421.09;5038332;28;19926;-65
2022/11/30 02:01:15;;;;;;;16.13;8.07;;;;;;;-142.75;100.00;78407.31;5038021;28;20057;-62
2022/11/30 02:03:48;;;;;;;16.23;7.43;;;;;;;-142.75;100.00;78405.34;5038090;28;20025;-61
2022/11/30 02:06:14;;;;;;;17.25;7.60;;;;;;;-142.75;100.00;78407.31;5037740;28;20036;-61
2022/11/30 02:08:39;;;;;;;13.18;7.97;;;;;;;-142.75;100.00;78407.31;5037153;28;20416;-65
2022/11/30 02:11:10;;;;;;;15.05;7.72;;;;;;;-142.75;100.00;78411.25;5037888;28;20105;-64
2022/11/30 02:14:04;;;;;;;12.85;7.70;;;;;;;-142.75;100.00;78395.47;5037958;28;20796;-62
2022/11/30 02:16:50;;;;;;;16.77;8.20;;;;;;;-142.75;100.00;78391.53;5036062;28;20033;-63
2022/11/30 02:19:50;;;;;;;14.02;8.18;;;;;;;-142.75;100.00;78389.56;5037441;28;20032;-64
2022/11/30 02:22:49;;;;;;;15.18;7.85;;;;;;;-142.75;100.00;78389.56;5038002;28;22249;-64
2022/11/30 02:25:44;;;;;;;13.00;7.85;;;;;;;-142.75;100.00;78425.03;5037702;28;20035;-64
2022/11/30 02:28:37;;;;;;;13.57;7.30;;;;;;;-142.75;100.00;78391.53;5037099;28;20147;-62
2022/11/30 02:31:07;;;;;;;12.15;6.95;;;;;;;-142.75;100.00;78395.47;5036387;28;20033;-59
2022/11/30 02:33:34;;;;;;;10.95;6.68;;;;;;;-142.75;100.00;78405.34;5037178;28;20040;-62
2022/11/30 02:36:02;;;;;;;16.92;8.48;;;;;;;-142.75;100.00;78395.47;5036693;28;20140;-64
2022/11/30 02:38:28;;;;;;;15.95;7.82;;;;;;;-142.75;100.00;78411.25;5036793;28;20871;-64
2022/11/30 02:40:54;;;;;;;13.18;6.28;;;;;;;-142.75;100.00;78442.75;5036461;28;20115;-64
2022/11/30 02:43:23;;;;;;;14.30;7.40;;;;;;;-142.75;100.00;78432.91;5037470;28;20578;-64
2022/11/30 02:46:10;;;;;;;11.20;5.82;;;;;;;-142.75;100.00;78468.34;5037662;28;20033;-63
2022/11/30 02:48:49;;;;;;;13.90;7.32;;;;;;;-142.75;100.00;78472.28;5035191;28;20032;-62
2022/11/30 02:51:20;;;;;;;10.87;6.93;;;;;;;-142.75;100.00;78480.16;5036284;28;20057;-64
2022/11/30 02:53:47;;;;;;;12.60;6.10;;;;;;;-142.75;100.00;78503.81;5037819;28;20029;-64
2022/11/30 02:56:12;;;;;;;11.27;6.03;;;;;;;-142.75;100.00;78501.84;5038300;28;20106;-63
2022/11/30 02:58:38;;;;;;;14.75;7.32;;;;;;;-142.75;100.00;78480.16;5041156;28;20125;-64
2022/11/30 03:01:04;;;;;;;;;;;;;;;-142.75;100.00;78474.25;5041533;28;20537;-62
2022/11/30 03:03:29;;;;;;;10.75;6.60;;;;;;;-142.75;100.00;78488.03;5040017;28;19916;-63
2022/11/30 03:05:54;;;;;;;13.80;7.13;;;;;;;-142.75;100.00;78474.25;5041108;28;20029;-65
2022/11/30 03:08:19;;;;;;;10.80;6.77;;;;;;;-142.75;100.00;78458.50;5038667;28;20286;-64
2022/11/30 03:10:45;;;;;;;11.57;7.50;;;;;;;-142.75;100.00;78454.56;5040974;28;20845;-63
2022/11/30 03:13:10;;;;;;;14.43;7.10;;;;;;;-142.75;100.00;78493.97;5040999;28;20271;-62
2022/11/30 03:15:35;;;;;;;14.20;7.67;;;;;;;-142.75;100.00;78482.13;5040689;28;20282;-63
2022/11/30 03:18:02;;;;;;;14.52;7.90;;;;;;;-142.75;100.00;78468.34;5038746;28;20025;-61
2022/11/30 03:20:27;;;;;;;12.98;7.05;;;;;;;-142.75;100.00;78474.25;5040904;28;20029;-64
2022/11/30 03:22:52;;;;;;;11.32;6.63;;;;;;;-142.75;100.00;78529.41;5041185;28;20043;-64
2022/11/30 03:25:18;;;;;;;10.25;6.35;;;;;;;-142.75;100.00;78493.97;5040552;28;20021;-64
2022/11/30 03:27:43;;;;;;;13.30;7.30;;;;;;;-142.75;100.00;78474.25;5039508;28;20889;-64
2022/11/30 03:30:09;;;;;;;13.98;6.95;;;;;;;-142.75;100.00;78458.50;5041331;28;20510;-63
2022/11/30 03:32:34;;;;;;;14.38;7.05;;;;;;;-142.75;100.00;78491.97;5040898;28;20111;-64
2022/11/30 03:34:59;;;;;;;13.17;6.90;;;;;;;-142.75;100.00;78503.81;5040894;28;20066;-64
2022/11/30 03:37:25;;;;;;;12.63;7.00;;;;;;;-142.75;100.00;78509.72;5039684;28;20263;-64
2022/11/30 03:39:50;;;;;;;13.80;6.03;;;;;;;-142.75;100.00;78493.97;5040488;28;20839;-64
2022/11/30 03:42:15;;;;;;;8.17;5.07;;;;;;;-142.75;100.00;78527.44;5040367;28;20336;-64
2022/11/30 03:44:41;;;;;;;9.45;4.53;;;;;;;-142.75;100.00;78531.38;5038948;28;20565;-60
2022/11/30 03:47:06;;;;;;;7.35;4.28;;;;;;;-142.75;100.00;78541.22;5039582;28;20056;-64
2022/11/30 03:49:31;;;;;;;9.68;5.07;;;;;;;-142.75;100.00;78523.50;5040185;28;20510;-64
2022/11/30 03:51:56;;;;;;;6.53;4.03;;;;;;;-142.75;100.00;78555.00;5040460;28;20035;-63
2022/11/30 03:54:22;;;;;;;4.93;3.07;;;;;;;-142.75;100.00;78584.56;5039897;28;20029;-63
2022/11/30 03:56:47;;;;;;;7.80;3.20;;;;;;;-142.75;100.00;78594.41;5038118;28;21162;-63
2022/11/30 03:59:12;;;;;;;12.43;6.60;;;;;;;-142.75;100.00;78582.59;5040634;28;20389;-64
2022/11/30 04:01:39;;;;;;;12.50;6.87;;;;;;;-142.75;100.00;78568.78;5038934;28;20296;-62
2022/11/30 04:04:05;;;;;;;11.67;6.67;;;;;;;-142.75;100.00;78564.84;5040055;28;20298;-62
2022/11/30 04:06:30;;;;;;;9.70;6.35;;;;;;;-142.75;100.00;78566.81;5039858;28;20044;-63
2022/11/30 04:08:56;;;;;;;14.13;5.47;;;;;;;-142.75;100.00;78618.03;5039434;28;20064;-61
2022/11/30 04:11:21;;;;;;;5.90;3.38;;;;;;;-142.75;100.00;78665.28;5039433;28;20420;-60
2022/11/30 04:13:46;;;;;;;15.10;3.35;;;;;;;-142.75;100.00;78700.75;5040208;28;20028;-63
2022/11/30 04:16:12;;;;;;;11.52;3.88;;;;;;;-142.75;100.00;78708.63;5039661;28;20060;-64
2022/11/30 04:18:37;;;;;;;13.90;7.05;;;;;;;-142.75;100.00;78669.25;5037632;28;20051;-64
2022/11/30 04:21:03;;;;;;;17.02;7.57;;;;;;;-142.75;100.00;78653.47;5039432;28;20035;-60
2022/11/30 04:23:29;;;;;;;;;;;;;;;-142.75;100.00;78598.34;5040036;28;20502;-61
2022/11/30 04:25:56;;;;;;;10.13;5.75;;;;;;;-142.75;100.00;78586.53;5039852;28;20306;-63
2022/11/30 04:28:21;;;;;;;13.00;7.67;;;;;;;-142.75;100.00;78570.75;5038789;28;20048;-62
2022/11/30 04:30:46;;;;;;;14.18;8.05;;;;;;;-142.75;100.00;78582.59;5039092;28;20755;-64
2022/11/30 04:33:14;;;;;;;19.70;7.88;;;;;;;-142.75;100.00;78570.75;5039306;28;20033;-63
2022/11/30 04:35:42;;;;;;;14.17;7.50;;;;;;;-142.75;100.00;78566.81;5039175;28;20035;-63
2022/11/30 04:38:08;;;;;;;16.10;8.97;;;;;;;-142.75;100.00;78558.94;5038390;28;20035;-64
2022/11/30 04:40:33;;;;;;;13.40;7.75;;;;;;;-142.75;100.00;78547.13;5038886;28;20021;-62
2022/11/30 04:42:59;;;;;;;12.60;6.88;;;;;;;-142.75;100.00;78566.81;5039228;28;20456;-62
2022/11/30 04:45:24;;;;;;;13.40;6.90;;;;;;;-142.75;100.00;78566.81;5039176;28;20687;-64
2022/11/30 04:47:49;;;;;;;9.60;5.18;;;;;;;-142.75;100.00;78576.66;5038192;28;20044;-64
2022/11/30 04:50:15;;;;;;;8.63;4.85;;;;;;;-142.75;100.00;78558.94;5037492;28;20137;-63
2022/11/30 04:52:40;;;;;;;13.65;7.50;;;;;;;-142.75;100.00;78572.72;5038457;28;20037;-60
2022/11/30 04:55:06;;;;;;;14.40;8.35;;;;;;;-142.75;100.00;78572.72;5038802;28;20094;-62
2022/11/30 04:57:31;;;;;;;12.73;6.60;;;;;;;-142.75;100.00;78574.69;5038449;28;20075;-63
2022/11/30 04:59:56;;;;;;;8.82;5.32;;;;;;;-142.75;100.00;78625.91;5039197;28;20056;-62
2022/11/30 05:02:22;;;;;;;11.55;5.70;;;;;;;-142.75;100.00;78643.63;5035875;28;20057;-61
2022/11/30 05:04:47;;;;;;;8.20;4.57;;;;;;;-142.75;100.00;78633.78;4996271;28;20041;-60
2022/11/30 05:07:13;;;;;;;15.05;6.68;;;;;;;-142.75;100.00;78606.22;4982933;28;20021;-60
2022/11/30 05:09:38;;;;;;;11.23;6.88;;;;;;;-142.75;100.00;78590.47;4982674;28;20293;-60
2022/11/30 05:12:04;;;;;;;10.02;5.78;;;;;;;-142.75;100.00;78616.06;4980960;28;20336;-60
2022/11/30 05:14:29;;;;;;;8.93;4.30;;;;;;;-142.75;100.00;78631.81;4982499;28;20314;-60
2022/11/30 05:16:54;;;;;;;10.00;5.88;;;;;;;-142.75;100.00;78625.91;4980745;28;20372;-61
2022/11/30 05:19:20;;;;;;;13.75;7.50;;;;;;;-142.75;100.00;78600.31;4982805;28;20423;-60
2022/11/30 05:21:46;;;;;;;10.43;6.60;;;;;;;-142.75;100.00;78612.13;4982887;28;20416;-60
2022/11/30 05:24:11;;;;;;;14.48;7.95;;;;;;;-142.75;100.00;78623.94;4982103;28;20499;-60
2022/11/30 05:26:37;;;;;;;12.30;7.85;;;;;;;-142.75;100.00;78618.03;4982766;28;20271;-60
2022/11/30 05:29:03;;;;;;;;;;;;;;;-142.75;100.00;78598.34;4983148;28;20126;-61
2022/11/30 05:31:29;;;;;;;9.63;6.17;;;;;;;-142.75;100.00;78590.47;4982791;28;20133;-63
2022/11/30 05:33:54;;;;;;;8.93;5.82;;;;;;;-142.75;100.00;78588.50;4982545;28;20311;-63
2022/11/30 05:36:20;;;;;;;12.38;7.13;;;;;;;-142.75;100.00;78582.59;4980764;28;20334;-63
2022/11/30 05:38:46;;;;;;;12.15;7.13;;;;;;;-142.75;100.00;78566.81;4982553;28;20357;-63
2022/11/30 05:41:11;;;;;;;;;;;;;;;-142.75;100.00;78551.06;4982500;28;20028;-64
2022/11/30 05:43:37;;;;;;;13.33;7.27;;;;;;;-142.75;100.00;78566.81;4977827;28;20270;-64
2022/11/30 05:46:04;;;;;;;16.85;8.80;;;;;;;-142.75;100.00;78558.94;4974314;28;20025;-64
2022/11/30 05:48:30;;;;;;;11.83;7.40;;;;;;;-142.75;100.00;78560.91;4982275;28;20029;-64
2022/11/30 05:51:04;;;;;;;13.23;7.85;;;;;;;-142.75;100.00;78553.03;4984483;28;20503;-61
2022/11/30 05:53:30;;;;;;;12.43;5.93;;;;;;;-142.75;100.00;78558.94;4982281;28;20554;-62
2022/11/30 05:55:55;;;;;;;9.32;5.85;;;;;;;-142.75;100.00;78568.78;4982175;28;20048;-62
2022/11/30 05:58:21;;;;;;;8.77;5.65;;;;;;;-142.75;100.00;78568.78;4980704;28;20406;-63
2022/11/30 06:00:46;;;;;;;7.97;5.25;;;;;;;-142.75;100.00;78612.13;4982212;28;20326;-63
2022/11/30 06:03:12;;;;;;;8.48;4.47;;;;;;;-142.75;100.00;78616.06;4982048;28;20315;-63
2022/11/30 06:05:37;;;;;;;8.55;5.30;;;;;;;-142.75;100.00;78645.59;4982120;28;20385;-64
2022/11/30 06:08:03;;;;;;;10.55;5.05;;;;;;;-142.75;100.00;78614.09;4981867;28;20491;-64
2022/11/30 06:10:28;;;;;;;11.13;6.30;;;;;;;-142.75;100.00;78596.38;4982301;28;20340;-63
2022/11/30 06:12:54;;;;;;;11.50;5.85;;;;;;;-142.75;100.00;78590.47;4982187;28;20337;-64
2022/11/30 06:15:19;;;;;;;9.95;6.60;;;;;;;-142.75;100.00;78588.50;4981961;28;20047;-63
2022/11/30 06:17:45;;;;;;;9.48;6.50;;;;;;;-142.75;100.00;78598.34;4981801;28;20385;-63
2022/11/30 06:20:11;;;;;;;11.75;6.55;;;;;;;-142.75;100.00;78580.59;5020597;22;20337;-68
2022/11/30 06:22:36;;;;;;;10.18;4.97;;;;;;;-142.75;100.00;78629.84;5003162;28;20321;-67
2022/11/30 06:25:02;;;;;;;6.88;4.47;;;;;;;-142.75;100.00;78633.78;5003958;28;20032;-67
2022/11/30 06:27:31;;;;;;;8.07;4.25;;;;;;;-142.75;100.00;78645.59;5002035;28;20098;-68
2022/11/30 06:29:56;;;;;;;7.03;4.67;;;;;;;-142.75;100.00;78661.34;5001894;28;20028;-68
2022/11/30 06:32:22;;;;;;;8.10;5.38;;;;;;;-142.75;100.00;78639.69;5006452;28;20321;-68
2022/11/30 06:34:47;;;;;;;9.30;5.47;;;;;;;-142.75;100.00;78623.94;5007735;28;20390;-68
2022/11/30 06:37:13;;;;;;;9.23;5.28;;;;;;;-142.75;100.00;78633.78;5005205;28;20380;-67
2022/11/30 06:39:38;;;;;;;8.38;4.65;;;;;;;-142.75;100.00;78653.47;5005458;28;20319;-68
2022/11/30 06:42:04;;;;;;;13.05;5.00;;;;;;;-142.75;100.00;78657.41;5006952;28;20448;-67
2022/11/30 06:44:29;;;;;;;12.32;5.90;;;;;;;-142.75;100.00;78661.34;5005295;28;20359;-68
2022/11/30 06:46:55;;;;;;;9.77;5.28;;;;;;;-142.75;100.00;78685.00;5005347;28;20341;-67
2022/11/30 06:49:20;;;;;;;10.55;5.20;;;;;;;-142.75;100.00;78681.06;5006307;28;20032;-68
2022/11/30 06:51:46;;;;;;;11.55;4.93;;;;;;;-142.75;100.00;78681.06;5005910;28;20032;-67
2022/11/30 06:54:11;;;;;;;8.60;5.05;;;;;;;-142.75;100.00;78700.75;5007063;28;20518;-68
2022/11/30 06:56:37;;;;;;;8.80;4.25;;;;;;;-142.75;100.00;78716.50;5005554;28;20325;-67
2022/11/30 06:59:02;;;;;;;8.07;4.45;;;;;;;-142.75;100.00;78696.81;5005407;28;20433;-67
2022/11/30 07:01:28;;;;;;;9.50;5.28;;;;;;;-142.75;100.00;78665.28;5006067;28;20039;-68
2022/11/30 07:03:53;;;;;;;13.05;5.65;;;;;;;-142.75;100.00;78685.00;5005713;28;20190;-68
2022/11/30 07:06:19;;;;;;;7.60;4.65;;;;;;;-142.75;100.00;78702.72;5005859;28;20348;-67
2022/11/30 07:08:44;;;;;;;8.18;4.93;;;;;;;-142.75;100.00;78696.81;5006457;28;20341;-68
2022/11/30 07:11:11;;;;;;;7.10;4.68;;;;;;;-142.75;100.00;78708.63;5005995;28;20462;-69
2022/11/30 07:13:37;;;;;;;15.83;6.00;;;;;;;-142.75;100.00;78706.66;5006024;28;20029;-68
2022/11/30 07:16:09;;;;;;;11.27;6.03;;;;;;;-142.75;100.00;78694.84;5005559;28;20329;-68
2022/11/30 07:18:35;;;;;;;9.90;5.47;;;;;;;-142.75;100.00;78694.84;5006719;28;20055;-68
2022/11/30 07:21:03;;;;;;;9.50;5.40;;;;;;;-142.75;100.00;78665.28;5006715;28;20032;-68
2022/11/30 07:26:13;;;;;;;7.87;4.50;;;;;;;-142.75;100.00;78673.19;5006341;28;20209;-70
2022/11/30 07:28:41;;;;;;;10.40;5.07;;;;;;;-142.75;100.00;78686.97;5005102;28;20255;-70
2022/11/30 07:31:20;;;;;;;7.77;4.63;;;;;;;-142.75;100.00;78688.94;5007133;28;20050;-69
2022/11/30 07:33:46;;;;;;;8.53;4.77;;;;;;;-142.75;100.00;78692.88;4991419;28;20105;-69
2022/11/30 07:36:12;;;;;;;9.10;5.70;;;;;;;-142.75;100.00;78665.28;5005037;28;20055;-70
2022/11/30 07:38:38;;;;;;;7.75;4.75;;;;;;;-142.75;100.00;78673.19;5006784;28;20365;-70
2022/11/30 07:41:04;;;;;;;9.85;5.47;;;;;;;-142.75;100.00;78677.13;5005334;28;20333;-70
2022/11/30 07:43:29;;;;;;;11.20;6.03;;;;;;;-142.75;100.00;78681.06;5005832;28;20020;-69
2022/11/30 07:45:55;;;;;;;9.70;6.07;;;;;;;-142.75;100.00;78677.13;5006838;28;20031;-68
2022/11/30 07:48:21;;;;;;;9.38;5.70;;;;;;;-142.75;100.00;78686.97;5004953;28;20024;-69
2022/11/30 07:50:48;;;;;;;14.80;6.50;;;;;;;-142.75;100.00;78683.03;5005402;28;20024;-69
2022/11/30 07:53:14;;;;;;;8.23;5.03;;;;;;;-142.75;100.00;78686.97;5005458;28;20025;-70
2022/11/30 07:55:40;;;;;;;10.27;5.77;;;;;;;-142.75;100.00;78688.94;5004364;28;20021;-70
2022/11/30 07:58:05;;;;;;;;;;;;;;;-142.75;100.00;78677.13;5005431;28;20025;-69
2022/11/30 08:00:31;;;;;;;11.10;6.05;;;;;;;-142.75;100.00;78655.44;5004673;28;20086;-69
2022/11/30 08:02:56;;;;;;;10.70;6.25;;;;;;;-142.75;100.00;78655.44;5001053;28;20329;-69
2022/11/30 08:05:22;;;;;;;11.85;7.20;;;;;;;-142.75;100.00;78633.78;5008956;28;20320;-69
2022/11/30 08:07:54;;;;;;;12.85;7.35;;;;;;;-142.75;100.00;78618.03;5011626;28;20074;-69
2022/11/30 08:10:20;;;;;;;12.10;7.53;;;;;;;-142.75;100.00;78629.84;5010892;28;20063;-69
2022/11/30 08:12:46;;;;;;;13.35;7.82;;;;;;;-142.75;100.00;78643.63;5010032;28;20068;-69
2022/11/30 08:15:11;;;;;;;12.90;6.47;;;;;;;-142.75;100.00;78649.53;5009776;28;20591;-69
2022/11/30 08:17:37;;;;;;;12.52;8.07;;;;;;;-142.75;100.00;78610.16;5010662;28;20051;-69
2022/11/30 08:20:03;;;;;;;13.57;7.50;;;;;;;-142.75;100.00;78594.41;5010644;28;20123;-69
2022/11/30 08:22:28;;;;;;;12.50;7.28;;;;;;;-142.75;100.00;78586.53;5011228;28;20229;-69
2022/11/30 08:24:54;;;;;;;12.18;7.82;;;;;;;-142.75;100.00;78600.31;5011392;28;20489;-69
2022/11/30 08:27:19;;;;;;;12.40;7.90;;;;;;;-142.75;100.00;78586.53;5007832;28;20446;-70
2022/11/30 08:29:44;;;;;;;11.55;7.95;;;;;;;-142.75;100.00;78594.41;5009604;28;20213;-68
2022/11/30 08:32:10;;;;;;;13.95;8.35;;;;;;;-142.75;100.00;78584.56;5010705;28;20070;-68
2022/11/30 08:34:35;;;;;;;14.38;7.80;;;;;;;-142.75;100.00;78584.56;5011125;28;20024;-68
2022/11/30 08:37:00;;;;;;;13.65;8.13;;;;;;;-142.75;100.00;78580.59;5010017;28;20449;-68
2022/11/30 08:39:27;;;;;;;14.77;8.60;;;;;;;-142.75;100.00;78594.41;5008684;28;20029;-68
2022/11/30 08:41:52;;;;;;;11.70;8.02;;;;;;;-142.75;100.00;78572.72;5011018;28;20024;-68
2022/11/30 08:44:18;;;;;;;13.88;9.05;;;;;;;-142.75;100.00;78558.94;5010762;28;20028;-68
2022/11/30 08:46:43;;;;;;;17.17;9.75;;;;;;;-142.75;100.00;78547.13;5008095;28;20498;-69
2022/11/30 08:49:09;;;;;;;13.68;8.35;;;;;;;-142.75;100.00;78547.13;5009401;28;20139;-69
2022/11/30 08:51:34;;;;;;;14.55;9.30;;;;;;;-142.75;100.00;78539.25;5012428;28;20548;-69
2022/11/30 08:54:00;;;;;;;16.70;8.70;;;;;;;-142.75;100.00;78539.25;5010468;28;20263;-69
2022/11/30 08:56:25;;;;;;;17.25;8.82;;;;;;;-142.75;100.00;78533.34;5008518;28;20656;-69
2022/11/30 08:58:51;;;;;;;16.17;9.38;;;;;;;-142.75;100.00;78525.47;5009144;28;20032;-69
2022/11/30 09:01:21;;;;;;;22.42;8.95;;;;;;;-142.75;100.00;78531.38;5009617;28;20119;-70
2022/11/30 09:03:49;;;;;;;14.02;8.60;;;;;;;-142.75;100.00;78529.41;5008482;28;20580;-69
2022/11/30 09:06:16;;;;;;;18.45;9.65;;;;;;;-142.75;100.00;78535.31;5009991;28;20205;-69
2022/11/30 09:08:44;;;;;;;15.77;9.95;;;;;;;-142.75;100.00;78545.16;5010267;28;20522;-69
2022/11/30 09:11:19;;;;;;;17.17;9.63;;;;;;;-142.75;100.00;78541.22;5010614;28;20035;-69
2022/11/30 09:13:45;;;;;;;14.60;9.23;;;;;;;-142.75;100.00;78525.47;5008772;28;20270;-69
2022/11/30 09:16:11;;;;;;;;;;;;;;;-142.75;100.00;78519.56;5008687;28;20128;-69
2022/11/30 09:18:37;;;;;;;14.98;9.55;;;;;;;-142.75;100.00;78525.47;5008947;28;19916;-69
2022/11/30 09:21:07;;;;;;;17.67;9.85;;;;;;;-142.75;100.00;78523.50;5009481;28;20541;-69
2022/11/30 09:23:32;;;;;;;16.45;10.30;;;;;;;-142.75;100.00;78523.50;5009576;28;20028;-69
2022/11/30 09:26:00;;;;;;;20.67;11.10;;;;;;;-142.75;100.00;78521.53;5010143;28;20035;-69
2022/11/30 09:28:26;;;;;;;17.75;10.52;;;;;;;-142.75;100.00;78503.81;5008092;28;20139;-69
2022/11/30 09:30:52;;;;;;;20.60;10.63;;;;;;;-142.75;100.00;78495.94;5009301;28;20101;-69
2022/11/30 09:33:18;;;;;;;20.10;11.20;;;;;;;-142.75;100.00;78503.81;5010097;28;20437;-69
2022/11/30 09:35:53;;;;;;;17.02;10.30;;;;;;;-142.75;100.00;78501.84;5009778;28;20030;-69
2022/11/30 09:38:18;;;;;;;18.17;10.60;;;;;;;-142.75;100.00;78491.97;5008414;28;20016;-69
2022/11/30 09:40:45;;;;;;;17.63;10.90;;;;;;;-142.75;100.00;78493.97;5009874;28;20171;-69
2022/11/30 09:43:29;;;;;;;16.73;9.77;;;;;;;-142.75;100.00;78464.41;5008491;28;20825;-69
2022/11/30 09:45:57;;;;;;;18.27;10.07;;;;;;;-142.75;100.00;78458.50;5009695;28;20028;-69
2022/11/30 09:48:47;;;;;;;18.00;11.25;;;;;;;-142.75;100.00;78446.69;5006677;28;20533;-69
2022/11/30 09:51:24;;;;;;;23.23;11.93;;;;;;;-142.75;100.00;78468.34;5009585;28;20189;-69
2022/11/30 09:54:00;;;;;;;13.38;8.05;;;;;;;-142.75;100.00;78456.53;5009798;28;20562;-69
2022/11/30 09:56:34;;;;;;;21.58;11.40;;;;;;;-142.75;100.00;78466.38;5009494;28;20564;-69
2022/11/30 09:59:15;;;;;;;20.70;12.10;;;;;;;-142.75;100.00;78466.38;5008559;28;20198;-69
2022/11/30 10:01:43;;;;;;;20.45;11.68;;;;;;;-142.75;100.00;78446.69;5007725;28;20189;-69
2022/11/30 10:04:28;;;;;;;21.65;12.45;;;;;;;-142.75;100.00;78415.19;5009476;28;20189;-69
2022/11/30 10:06:56;;;;;;;22.80;12.27;;;;;;;-142.75;100.00;78405.34;5007641;28;20942;-69
2022/11/30 10:09:40;;;;;;;19.73;11.95;;;;;;;-142.75;100.00;78369.88;5008017;28;20602;-69
2022/11/30 10:12:13;;;;;;;21.83;11.75;;;;;;;-142.75;100.00;78350.19;5008737;28;20097;-69
2022/11/30 10:14:44;;;;;;;24.08;12.50;;;;;;;-142.75;100.00;78320.66;5008327;28;20684;-68
2022/11/30 10:17:28;;;;;;;25.15;11.90;;;;;;;-142.75;100.00;78310.81;5008445;28;20127;-67
2022/11/30 10:19:59;;;;;;;24.52;11.25;;;;;;;-142.75;100.00;78271.41;5008410;28;20553;-67
2022/11/30 10:23:00;;;;;;;23.38;10.60;;;;;;;-142.75;100.00;78279.28;5009386;28;20202;-67
2022/11/30 10:25:37;;;;;;;23.27;11.23;;;;;;;-142.75;100.00;78299.00;5007929;28;20564;-67
2022/11/30 10:28:37;;;;;;;22.15;10.60;;;;;;;-142.75;100.00;78259.59;5007947;28;20304;-67
2022/11/30 10:31:04;;;;;;;19.15;10.57;;;;;;;-142.75;100.00;78198.56;5009099;28;20186;-67
2022/11/30 10:33:40;;;;;;;21.60;10.50;;;;;;;-142.75;100.00;78190.69;5009290;28;20248;-67
2022/11/30 10:36:12;;;;;;;18.90;10.77;;;;;;;-142.75;100.00;78200.53;5008111;28;20333;-67
2022/11/30 10:38:48;;;;;;;18.08;10.25;;;;;;;-142.75;100.00;78208.41;5008260;28;20090;-67
2022/11/30 10:41:24;;;;;;;18.50;10.27;;;;;;;-142.75;100.00;78222.19;5006310;28;20523;-67
2022/11/30 10:44:01;;;;;;;21.47;10.10;;;;;;;-142.75;100.00;78255.66;5009135;28;20603;-67
2022/11/30 10:46:31;;;;;;;17.60;9.52;;;;;;;-142.75;100.00;78267.47;5008354;28;20866;-67
2022/11/30 10:49:03;;;;;;;16.17;8.88;;;;;;;-142.75;100.00;78253.69;5009390;28;20028;-67
2022/11/30 10:51:31;;;;;;;17.63;9.55;;;;;;;-142.75;100.00;78255.66;5007885;28;20453;-67
2022/11/30 10:53:57;;;;;;;16.25;9.52;;;;;;;-142.75;100.00;78277.31;5008547;28;20583;-67
2022/11/30 10:56:24;;;;;;;;;;;;;;;-142.75;100.00;78251.72;5009485;28;20021;-67
2022/11/30 10:58:57;;;;;;;19.23;9.88;;;;;;;-142.75;100.00;78249.75;5007644;28;20708;-67
2022/11/30 11:01:33;;;;;;;21.55;10.13;;;;;;;-142.75;100.00;78253.69;5009932;28;20032;-67
2022/11/30 11:04:27;;;;;;;18.50;10.30;;;;;;;-142.75;100.00;78230.06;5007306;28;20333;-67
2022/11/30 11:06:58;;;;;;;15.85;9.20;;;;;;;-142.75;100.00;78237.94;5005354;28;20044;-67
2022/11/30 11:09:45;;;;;;;17.63;9.70;;;;;;;-142.75;100.00;78184.78;5008310;28;20028;-67
2022/11/30 11:12:29;;;;;;;21.90;9.57;;;;;;;-142.75;100.00;78190.69;5007685;28;20048;-66